LICB Airport Information

Runway Information
Runway 05 Length 8070 ft width 148 ft Elevation N/A Threshold N/A Heading 48
Runway 23 Length 8070 ft Width 148 ft Elevation ft Threshold N/A Heading 228
Airport Frequencies
Airport Navaids
Airport Weather Information & NOTAM
ADDS - METARS form results

(0300 UTC 12 August 2022)
Data provider http://aviationweather.gov/metar/data/
 
METAR text: LICB 120250Z AUTO 05004KT 9999 NCD 20/19 Q1013
Conditions at: LICB (COMISO , IT) observed 0250 UTC 12 August 2022
Temperature: 20.0°C (68°F)
Dewpoint: 19.0°C (66°F) [RH = 94%]
Pressure (altimeter): 29.91 inches Hg (1013.0 mb)
Winds: from the NE (50 degrees) at 5 MPH (4 knots; 2.1 m/s)
Visibility: 6 or more miles (10+ km)
Ceiling: at least 12,000 feet AGL
Clouds: sky clear below 12,000 feet AGL
Weather: no significant weather observed at this time

METAR text: LICB 120220Z AUTO 05005KT 9999 NCD 20/19 Q1013
Conditions at: LICB (COMISO , IT) observed 0220 UTC 12 August 2022
Temperature: 20.0°C (68°F)
Dewpoint: 19.0°C (66°F) [RH = 94%]
Pressure (altimeter): 29.91 inches Hg (1013.0 mb)
Winds: from the NE (50 degrees) at 6 MPH (5 knots; 2.6 m/s)
Visibility: 6 or more miles (10+ km)
Ceiling: at least 12,000 feet AGL
Clouds: sky clear below 12,000 feet AGL
Weather: no significant weather observed at this time

Forecast for: LICB (COMISO , IT)
Text: TAF LICB 112300Z 1200/1224 VRB05KT 9999 FEW030
Forecast period: 0000 UTC 12 August 2022 to 0000 UTC 13 August 2022
Forecast type: FROM: standard forecast or significant change
Winds: variable direction winds at 6 MPH (5 knots; 2.6 m/s)
Visibility: 6 or more miles (10+ km)
Ceiling: at least 12,000 feet AGL
Clouds: few clouds at 3000 feet AGL
Weather: no significant weather forecast for this period
Text: TEMPO 1210/1216 4000 TSRA
Forecast period: 1000 to 1600 UTC 12 August 2022
Forecast type: TEMPORARY: The following changes expected for less than half the time period
Visibility: 2.49 miles (4.01 km)
Ceiling: unknown
Clouds: missing
Weather: TSRA  (rain associated with thunderstorm(s))